sensor_id;sensor_type;location;lat;lon;timestamp;P1;durP1;ratioP1;P2;durP2;ratioP2
5010;SDS011;2524;54.364;10.072;2023-08-06T00:01:48;1.87;;;1.80;;
5010;SDS011;2524;54.364;10.072;2023-08-06T00:04:13;2.43;;;1.63;;
5010;SDS011;2524;54.364;10.072;2023-08-06T00:06:39;7.33;;;1.97;;
5010;SDS011;2524;54.364;10.072;2023-08-06T00:09:05;1.63;;;1.53;;
5010;SDS011;2524;54.364;10.072;2023-08-06T00:11:30;2.37;;;1.60;;
5010;SDS011;2524;54.364;10.072;2023-08-06T00:13:56;3.00;;;1.97;;
5010;SDS011;2524;54.364;10.072;2023-08-06T00:16:22;2.07;;;1.97;;
5010;SDS011;2524;54.364;10.072;2023-08-06T00:18:47;2.30;;;2.10;;
5010;SDS011;2524;54.364;10.072;2023-08-06T00:21:13;2.23;;;2.00;;
5010;SDS011;2524;54.364;10.072;2023-08-06T00:23:39;2.20;;;1.90;;
5010;SDS011;2524;54.364;10.072;2023-08-06T00:26:05;1.83;;;1.83;;
5010;SDS011;2524;54.364;10.072;2023-08-06T00:28:31;2.10;;;1.90;;
5010;SDS011;2524;54.364;10.072;2023-08-06T00:30:56;2.10;;;2.00;;
5010;SDS011;2524;54.364;10.072;2023-08-06T00:33:22;3.47;;;1.90;;
5010;SDS011;2524;54.364;10.072;2023-08-06T00:35:48;2.10;;;1.97;;
5010;SDS011;2524;54.364;10.072;2023-08-06T00:38:14;2.77;;;2.00;;
5010;SDS011;2524;54.364;10.072;2023-08-06T00:40:40;2.00;;;1.90;;
5010;SDS011;2524;54.364;10.072;2023-08-06T00:43:05;2.10;;;2.00;;
5010;SDS011;2524;54.364;10.072;2023-08-06T00:45:31;2.30;;;2.10;;
5010;SDS011;2524;54.364;10.072;2023-08-06T00:48:00;2.17;;;1.97;;
5010;SDS011;2524;54.364;10.072;2023-08-06T00:50:26;2.50;;;2.10;;
5010;SDS011;2524;54.364;10.072;2023-08-06T00:52:52;1.67;;;1.67;;
5010;SDS011;2524;54.364;10.072;2023-08-06T00:55:19;2.17;;;1.97;;
5010;SDS011;2524;54.364;10.072;2023-08-06T00:57:44;2.03;;;1.93;;
5010;SDS011;2524;54.364;10.072;2023-08-06T01:00:10;1.67;;;1.60;;
5010;SDS011;2524;54.364;10.072;2023-08-06T01:02:36;1.60;;;1.53;;
5010;SDS011;2524;54.364;10.072;2023-08-06T01:05:02;2.10;;;1.90;;
5010;SDS011;2524;54.364;10.072;2023-08-06T01:12:39;1.73;;;1.63;;
5010;SDS011;2524;54.364;10.072;2023-08-06T01:15:28;4.13;;;2.10;;
5010;SDS011;2524;54.364;10.072;2023-08-06T01:17:57;2.47;;;2.27;;
5010;SDS011;2524;54.364;10.072;2023-08-06T01:20:27;2.30;;;2.10;;
5010;SDS011;2524;54.364;10.072;2023-08-06T01:22:53;1.87;;;1.80;;
5010;SDS011;2524;54.364;10.072;2023-08-06T01:25:19;2.10;;;1.90;;
5010;SDS011;2524;54.364;10.072;2023-08-06T01:27:46;2.00;;;1.90;;
5010;SDS011;2524;54.364;10.072;2023-08-06T01:30:20;1.77;;;1.77;;
5010;SDS011;2524;54.364;10.072;2023-08-06T01:32:54;2.20;;;2.00;;
5010;SDS011;2524;54.364;10.072;2023-08-06T01:35:27;1.90;;;1.80;;
5010;SDS011;2524;54.364;10.072;2023-08-06T01:37:54;2.83;;;2.63;;
5010;SDS011;2524;54.364;10.072;2023-08-06T01:40:21;2.10;;;1.97;;
5010;SDS011;2524;54.364;10.072;2023-08-06T01:42:46;1.90;;;1.80;;
5010;SDS011;2524;54.364;10.072;2023-08-06T01:45:12;1.90;;;1.80;;
5010;SDS011;2524;54.364;10.072;2023-08-06T01:47:39;2.20;;;2.00;;
5010;SDS011;2524;54.364;10.072;2023-08-06T01:50:04;2.33;;;2.23;;
5010;SDS011;2524;54.364;10.072;2023-08-06T01:52:30;2.90;;;2.27;;
5010;SDS011;2524;54.364;10.072;2023-08-06T01:54:56;5.90;;;2.37;;
5010;SDS011;2524;54.364;10.072;2023-08-06T01:57:21;2.30;;;1.93;;
5010;SDS011;2524;54.364;10.072;2023-08-06T01:59:47;2.43;;;2.23;;
5010;SDS011;2524;54.364;10.072;2023-08-06T02:02:12;3.50;;;1.80;;
5010;SDS011;2524;54.364;10.072;2023-08-06T02:04:38;4.77;;;2.60;;
5010;SDS011;2524;54.364;10.072;2023-08-06T02:07:04;3.17;;;2.40;;
5010;SDS011;2524;54.364;10.072;2023-08-06T02:09:29;2.30;;;2.20;;
5010;SDS011;2524;54.364;10.072;2023-08-06T02:11:55;3.73;;;2.60;;
5010;SDS011;2524;54.364;10.072;2023-08-06T02:14:20;2.30;;;2.20;;
5010;SDS011;2524;54.364;10.072;2023-08-06T02:16:46;2.40;;;2.27;;
5010;SDS011;2524;54.364;10.072;2023-08-06T02:19:11;5.50;;;2.73;;
5010;SDS011;2524;54.364;10.072;2023-08-06T02:21:37;2.57;;;2.37;;
5010;SDS011;2524;54.364;10.072;2023-08-06T02:24:02;2.30;;;2.20;;
5010;SDS011;2524;54.364;10.072;2023-08-06T02:26:28;2.43;;;2.33;;
5010;SDS011;2524;54.364;10.072;2023-08-06T02:28:54;3.70;;;2.67;;
5010;SDS011;2524;54.364;10.072;2023-08-06T02:31:19;2.43;;;2.30;;
5010;SDS011;2524;54.364;10.072;2023-08-06T02:33:45;3.77;;;2.50;;
5010;SDS011;2524;54.364;10.072;2023-08-06T02:36:10;2.20;;;2.10;;
5010;SDS011;2524;54.364;10.072;2023-08-06T02:38:36;3.00;;;2.50;;
5010;SDS011;2524;54.364;10.072;2023-08-06T02:41:02;3.33;;;2.63;;
5010;SDS011;2524;54.364;10.072;2023-08-06T02:43:28;3.17;;;2.70;;
5010;SDS011;2524;54.364;10.072;2023-08-06T02:45:56;2.50;;;2.30;;
5010;SDS011;2524;54.364;10.072;2023-08-06T02:48:23;2.30;;;2.20;;
5010;SDS011;2524;54.364;10.072;2023-08-06T02:50:48;3.67;;;2.80;;
5010;SDS011;2524;54.364;10.072;2023-08-06T02:53:14;6.90;;;3.20;;
5010;SDS011;2524;54.364;10.072;2023-08-06T02:55:44;3.33;;;3.00;;
5010;SDS011;2524;54.364;10.072;2023-08-06T02:58:12;2.63;;;2.50;;
5010;SDS011;2524;54.364;10.072;2023-08-06T03:00:38;2.87;;;2.67;;
5010;SDS011;2524;54.364;10.072;2023-08-06T03:03:04;2.87;;;2.67;;
5010;SDS011;2524;54.364;10.072;2023-08-06T03:05:29;3.23;;;2.50;;
5010;SDS011;2524;54.364;10.072;2023-08-06T03:07:55;2.70;;;2.60;;
5010;SDS011;2524;54.364;10.072;2023-08-06T03:10:20;3.33;;;2.30;;
5010;SDS011;2524;54.364;10.072;2023-08-06T03:12:46;2.70;;;2.50;;
5010;SDS011;2524;54.364;10.072;2023-08-06T03:15:11;1.97;;;1.87;;
5010;SDS011;2524;54.364;10.072;2023-08-06T03:17:37;2.23;;;2.13;;
5010;SDS011;2524;54.364;10.072;2023-08-06T03:20:03;2.00;;;1.90;;
5010;SDS011;2524;54.364;10.072;2023-08-06T03:22:29;1.90;;;1.90;;
5010;SDS011;2524;54.364;10.072;2023-08-06T03:24:55;2.30;;;2.10;;
5010;SDS011;2524;54.364;10.072;2023-08-06T03:27:20;1.87;;;1.80;;
5010;SDS011;2524;54.364;10.072;2023-08-06T03:29:48;2.43;;;2.33;;
5010;SDS011;2524;54.364;10.072;2023-08-06T03:32:15;3.10;;;2.80;;
5010;SDS011;2524;54.364;10.072;2023-08-06T03:34:40;2.73;;;2.63;;
5010;SDS011;2524;54.364;10.072;2023-08-06T03:37:06;2.97;;;2.77;;
5010;SDS011;2524;54.364;10.072;2023-08-06T03:39:31;2.73;;;2.53;;
5010;SDS011;2524;54.364;10.072;2023-08-06T03:41:57;2.87;;;2.67;;
5010;SDS011;2524;54.364;10.072;2023-08-06T03:44:22;3.00;;;2.83;;
5010;SDS011;2524;54.364;10.072;2023-08-06T03:46:48;2.43;;;2.23;;
5010;SDS011;2524;54.364;10.072;2023-08-06T03:49:13;2.20;;;2.10;;
5010;SDS011;2524;54.364;10.072;2023-08-06T03:51:39;2.40;;;2.20;;
5010;SDS011;2524;54.364;10.072;2023-08-06T03:54:04;2.80;;;2.60;;
5010;SDS011;2524;54.364;10.072;2023-08-06T03:56:30;4.50;;;2.70;;
5010;SDS011;2524;54.364;10.072;2023-08-06T03:58:56;3.80;;;3.10;;
5010;SDS011;2524;54.364;10.072;2023-08-06T04:01:21;2.87;;;2.67;;
5010;SDS011;2524;54.364;10.072;2023-08-06T04:03:47;2.73;;;2.53;;
5010;SDS011;2524;54.364;10.072;2023-08-06T04:06:12;4.83;;;3.00;;
5010;SDS011;2524;54.364;10.072;2023-08-06T04:08:38;3.20;;;3.00;;
5010;SDS011;2524;54.364;10.072;2023-08-06T04:11:03;3.50;;;3.00;;
5010;SDS011;2524;54.364;10.072;2023-08-06T04:13:29;9.90;;;3.20;;
5010;SDS011;2524;54.364;10.072;2023-08-06T04:15:54;2.90;;;2.70;;
5010;SDS011;2524;54.364;10.072;2023-08-06T04:18:21;3.80;;;3.10;;
5010;SDS011;2524;54.364;10.072;2023-08-06T04:20:46;5.90;;;3.27;;
5010;SDS011;2524;54.364;10.072;2023-08-06T04:23:12;5.70;;;2.90;;
5010;SDS011;2524;54.364;10.072;2023-08-06T04:25:38;3.50;;;2.90;;
5010;SDS011;2524;54.364;10.072;2023-08-06T04:28:04;3.77;;;3.23;;
5010;SDS011;2524;54.364;10.072;2023-08-06T04:30:30;5.27;;;2.97;;
5010;SDS011;2524;54.364;10.072;2023-08-06T04:32:58;3.50;;;2.90;;
5010;SDS011;2524;54.364;10.072;2023-08-06T04:35:24;2.40;;;2.30;;
5010;SDS011;2524;54.364;10.072;2023-08-06T04:37:49;2.33;;;2.13;;
5010;SDS011;2524;54.364;10.072;2023-08-06T04:40:15;2.47;;;2.20;;
5010;SDS011;2524;54.364;10.072;2023-08-06T04:42:41;4.10;;;2.60;;
5010;SDS011;2524;54.364;10.072;2023-08-06T04:45:06;4.10;;;2.77;;
5010;SDS011;2524;54.364;10.072;2023-08-06T04:47:32;2.27;;;2.10;;
5010;SDS011;2524;54.364;10.072;2023-08-06T04:49:58;3.43;;;2.80;;
5010;SDS011;2524;54.364;10.072;2023-08-06T04:52:23;3.43;;;2.60;;
5010;SDS011;2524;54.364;10.072;2023-08-06T04:54:52;2.90;;;2.30;;
5010;SDS011;2524;54.364;10.072;2023-08-06T04:57:18;2.20;;;2.10;;
5010;SDS011;2524;54.364;10.072;2023-08-06T04:59:43;3.80;;;2.67;;
5010;SDS011;2524;54.364;10.072;2023-08-06T05:02:09;2.83;;;2.63;;
5010;SDS011;2524;54.364;10.072;2023-08-06T05:04:34;2.90;;;2.70;;
5010;SDS011;2524;54.364;10.072;2023-08-06T05:07:00;2.83;;;2.63;;
5010;SDS011;2524;54.364;10.072;2023-08-06T05:09:25;2.30;;;2.20;;
5010;SDS011;2524;54.364;10.072;2023-08-06T05:11:51;2.30;;;2.20;;
5010;SDS011;2524;54.364;10.072;2023-08-06T05:14:16;2.83;;;2.50;;
5010;SDS011;2524;54.364;10.072;2023-08-06T05:16:42;2.20;;;2.10;;
5010;SDS011;2524;54.364;10.072;2023-08-06T05:19:08;2.40;;;2.20;;
5010;SDS011;2524;54.364;10.072;2023-08-06T05:21:33;3.03;;;2.00;;
5010;SDS011;2524;54.364;10.072;2023-08-06T05:23:59;1.83;;;1.83;;
5010;SDS011;2524;54.364;10.072;2023-08-06T05:26:24;1.97;;;1.90;;
5010;SDS011;2524;54.364;10.072;2023-08-06T05:28:50;2.13;;;2.00;;
5010;SDS011;2524;54.364;10.072;2023-08-06T05:31:15;2.00;;;1.90;;
5010;SDS011;2524;54.364;10.072;2023-08-06T05:33:41;2.80;;;1.90;;
5010;SDS011;2524;54.364;10.072;2023-08-06T05:36:06;1.87;;;1.77;;
5010;SDS011;2524;54.364;10.072;2023-08-06T05:38:32;1.70;;;1.60;;
5010;SDS011;2524;54.364;10.072;2023-08-06T05:40:57;1.90;;;1.80;;
5010;SDS011;2524;54.364;10.072;2023-08-06T05:43:23;2.13;;;2.03;;
5010;SDS011;2524;54.364;10.072;2023-08-06T05:45:49;2.03;;;1.93;;
5010;SDS011;2524;54.364;10.072;2023-08-06T05:48:15;1.90;;;1.80;;
5010;SDS011;2524;54.364;10.072;2023-08-06T05:50:41;2.07;;;1.97;;
5010;SDS011;2524;54.364;10.072;2023-08-06T05:53:06;2.17;;;1.90;;
5010;SDS011;2524;54.364;10.072;2023-08-06T05:55:32;2.00;;;1.90;;
5010;SDS011;2524;54.364;10.072;2023-08-06T05:57:58;2.13;;;1.97;;
5010;SDS011;2524;54.364;10.072;2023-08-06T06:00:24;2.50;;;2.30;;
5010;SDS011;2524;54.364;10.072;2023-08-06T06:02:49;2.27;;;2.17;;
5010;SDS011;2524;54.364;10.072;2023-08-06T06:05:15;2.10;;;2.00;;
5010;SDS011;2524;54.364;10.072;2023-08-06T06:07:41;2.13;;;1.90;;
5010;SDS011;2524;54.364;10.072;2023-08-06T06:10:06;2.73;;;2.20;;
5010;SDS011;2524;54.364;10.072;2023-08-06T06:12:32;3.07;;;2.20;;
5010;SDS011;2524;54.364;10.072;2023-08-06T06:14:58;2.30;;;2.20;;
5010;SDS011;2524;54.364;10.072;2023-08-06T06:17:28;2.63;;;2.40;;
5010;SDS011;2524;54.364;10.072;2023-08-06T06:19:54;2.13;;;2.03;;
5010;SDS011;2524;54.364;10.072;2023-08-06T06:22:20;1.57;;;1.50;;
5010;SDS011;2524;54.364;10.072;2023-08-06T06:24:45;2.37;;;2.20;;
5010;SDS011;2524;54.364;10.072;2023-08-06T06:27:11;2.13;;;1.80;;
5010;SDS011;2524;54.364;10.072;2023-08-06T06:29:36;1.60;;;1.53;;
5010;SDS011;2524;54.364;10.072;2023-08-06T06:32:02;1.70;;;1.60;;
5010;SDS011;2524;54.364;10.072;2023-08-06T06:34:28;2.13;;;2.00;;
5010;SDS011;2524;54.364;10.072;2023-08-06T06:36:53;1.93;;;1.83;;
5010;SDS011;2524;54.364;10.072;2023-08-06T06:39:19;1.90;;;1.80;;
5010;SDS011;2524;54.364;10.072;2023-08-06T06:41:45;2.00;;;1.90;;
5010;SDS011;2524;54.364;10.072;2023-08-06T06:44:11;2.00;;;1.90;;
5010;SDS011;2524;54.364;10.072;2023-08-06T06:46:36;2.80;;;2.20;;
5010;SDS011;2524;54.364;10.072;2023-08-06T06:49:02;2.00;;;1.90;;
5010;SDS011;2524;54.364;10.072;2023-08-06T06:51:27;1.63;;;1.53;;
5010;SDS011;2524;54.364;10.072;2023-08-06T06:53:53;1.90;;;1.80;;
5010;SDS011;2524;54.364;10.072;2023-08-06T06:56:19;2.60;;;1.90;;
5010;SDS011;2524;54.364;10.072;2023-08-06T06:58:44;2.13;;;1.90;;
5010;SDS011;2524;54.364;10.072;2023-08-06T07:01:10;1.97;;;1.87;;
5010;SDS011;2524;54.364;10.072;2023-08-06T07:03:36;2.07;;;1.97;;
5010;SDS011;2524;54.364;10.072;2023-08-06T07:06:02;4.40;;;2.23;;
5010;SDS011;2524;54.364;10.072;2023-08-06T07:08:28;1.97;;;1.87;;
5010;SDS011;2524;54.364;10.072;2023-08-06T07:11:03;3.30;;;1.93;;
5010;SDS011;2524;54.364;10.072;2023-08-06T07:13:30;2.07;;;1.97;;
5010;SDS011;2524;54.364;10.072;2023-08-06T07:15:56;1.40;;;1.40;;
5010;SDS011;2524;54.364;10.072;2023-08-06T07:18:22;2.00;;;1.90;;
5010;SDS011;2524;54.364;10.072;2023-08-06T07:20:51;2.20;;;2.10;;
5010;SDS011;2524;54.364;10.072;2023-08-06T07:23:22;3.57;;;2.10;;
5010;SDS011;2524;54.364;10.072;2023-08-06T07:25:49;1.70;;;1.70;;
5010;SDS011;2524;54.364;10.072;2023-08-06T07:28:15;1.97;;;1.80;;
5010;SDS011;2524;54.364;10.072;2023-08-06T07:30:41;1.43;;;1.43;;
5010;SDS011;2524;54.364;10.072;2023-08-06T07:33:08;1.77;;;1.67;;
5010;SDS011;2524;54.364;10.072;2023-08-06T07:35:34;2.10;;;2.00;;
5010;SDS011;2524;54.364;10.072;2023-08-06T07:38:00;2.00;;;1.90;;
5010;SDS011;2524;54.364;10.072;2023-08-06T07:40:25;1.97;;;1.80;;
5010;SDS011;2524;54.364;10.072;2023-08-06T07:42:51;1.63;;;1.63;;
5010;SDS011;2524;54.364;10.072;2023-08-06T07:45:17;1.80;;;1.70;;
5010;SDS011;2524;54.364;10.072;2023-08-06T07:47:42;2.67;;;2.23;;
5010;SDS011;2524;54.364;10.072;2023-08-06T07:50:08;1.47;;;1.40;;
5010;SDS011;2524;54.364;10.072;2023-08-06T07:52:34;1.83;;;1.73;;
5010;SDS011;2524;54.364;10.072;2023-08-06T07:55:00;1.83;;;1.67;;
5010;SDS011;2524;54.364;10.072;2023-08-06T07:57:29;1.47;;;1.40;;
5010;SDS011;2524;54.364;10.072;2023-08-06T07:59:59;1.70;;;1.60;;
5010;SDS011;2524;54.364;10.072;2023-08-06T08:02:25;2.23;;;1.70;;
5010;SDS011;2524;54.364;10.072;2023-08-06T08:04:50;4.97;;;2.13;;
5010;SDS011;2524;54.364;10.072;2023-08-06T08:07:16;1.30;;;1.30;;
5010;SDS011;2524;54.364;10.072;2023-08-06T08:09:42;2.03;;;1.60;;
5010;SDS011;2524;54.364;10.072;2023-08-06T08:12:07;2.00;;;1.80;;
5010;SDS011;2524;54.364;10.072;2023-08-06T08:14:33;1.67;;;1.57;;
5010;SDS011;2524;54.364;10.072;2023-08-06T08:17:03;1.30;;;1.30;;
5010;SDS011;2524;54.364;10.072;2023-08-06T08:19:30;1.20;;;1.20;;
5010;SDS011;2524;54.364;10.072;2023-08-06T08:21:56;4.00;;;2.07;;
5010;SDS011;2524;54.364;10.072;2023-08-06T08:24:22;1.97;;;1.80;;
5010;SDS011;2524;54.364;10.072;2023-08-06T08:26:53;1.53;;;1.43;;
5010;SDS011;2524;54.364;10.072;2023-08-06T08:29:19;1.60;;;1.50;;
5010;SDS011;2524;54.364;10.072;2023-08-06T08:31:46;2.80;;;1.97;;
5010;SDS011;2524;54.364;10.072;2023-08-06T08:34:14;1.97;;;1.87;;
5010;SDS011;2524;54.364;10.072;2023-08-06T08:36:40;2.37;;;1.40;;
5010;SDS011;2524;54.364;10.072;2023-08-06T08:39:05;1.70;;;1.60;;
5010;SDS011;2524;54.364;10.072;2023-08-06T08:41:31;1.10;;;1.10;;
5010;SDS011;2524;54.364;10.072;2023-08-06T08:43:58;1.63;;;1.53;;
5010;SDS011;2524;54.364;10.072;2023-08-06T08:46:29;1.80;;;1.70;;
5010;SDS011;2524;54.364;10.072;2023-08-06T08:48:56;2.20;;;1.53;;
5010;SDS011;2524;54.364;10.072;2023-08-06T08:51:24;1.83;;;1.70;;
5010;SDS011;2524;54.364;10.072;2023-08-06T08:53:52;1.80;;;1.70;;
5010;SDS011;2524;54.364;10.072;2023-08-06T08:56:21;1.70;;;1.60;;
5010;SDS011;2524;54.364;10.072;2023-08-06T08:58:47;1.77;;;1.67;;
5010;SDS011;2524;54.364;10.072;2023-08-06T09:01:13;1.60;;;1.60;;
5010;SDS011;2524;54.364;10.072;2023-08-06T09:03:40;1.90;;;1.60;;
5010;SDS011;2524;54.364;10.072;2023-08-06T09:06:07;3.60;;;2.20;;
5010;SDS011;2524;54.364;10.072;2023-08-06T09:08:36;2.43;;;1.77;;
5010;SDS011;2524;54.364;10.072;2023-08-06T09:11:05;1.50;;;1.40;;
5010;SDS011;2524;54.364;10.072;2023-08-06T09:13:35;1.73;;;1.63;;
5010;SDS011;2524;54.364;10.072;2023-08-06T09:16:02;1.37;;;1.27;;
5010;SDS011;2524;54.364;10.072;2023-08-06T09:18:29;1.40;;;1.40;;
5010;SDS011;2524;54.364;10.072;2023-08-06T09:20:55;2.03;;;1.60;;
5010;SDS011;2524;54.364;10.072;2023-08-06T09:23:27;1.90;;;1.80;;
5010;SDS011;2524;54.364;10.072;2023-08-06T09:25:55;2.10;;;1.60;;
5010;SDS011;2524;54.364;10.072;2023-08-06T09:28:21;2.10;;;1.90;;
5010;SDS011;2524;54.364;10.072;2023-08-06T09:30:47;2.93;;;1.60;;
5010;SDS011;2524;54.364;10.072;2023-08-06T09:33:17;1.70;;;1.60;;
5010;SDS011;2524;54.364;10.072;2023-08-06T09:35:45;1.40;;;1.40;;
5010;SDS011;2524;54.364;10.072;2023-08-06T09:38:11;2.43;;;1.90;;
5010;SDS011;2524;54.364;10.072;2023-08-06T09:40:38;2.00;;;1.90;;
5010;SDS011;2524;54.364;10.072;2023-08-06T09:43:04;6.50;;;2.10;;
5010;SDS011;2524;54.364;10.072;2023-08-06T09:45:34;1.77;;;1.67;;
5010;SDS011;2524;54.364;10.072;2023-08-06T09:48:04;4.33;;;2.10;;
5010;SDS011;2524;54.364;10.072;2023-08-06T09:50:32;3.23;;;1.80;;
5010;SDS011;2524;54.364;10.072;2023-08-06T09:53:06;2.93;;;2.50;;
5010;SDS011;2524;54.364;10.072;2023-08-06T09:55:35;1.87;;;1.67;;
5010;SDS011;2524;54.364;10.072;2023-08-06T09:58:01;3.37;;;2.40;;
5010;SDS011;2524;54.364;10.072;2023-08-06T10:00:27;2.10;;;1.87;;
5010;SDS011;2524;54.364;10.072;2023-08-06T10:02:54;6.03;;;1.90;;
5010;SDS011;2524;54.364;10.072;2023-08-06T10:05:24;1.90;;;1.80;;
5010;SDS011;2524;54.364;10.072;2023-08-06T10:07:50;3.27;;;1.60;;
5010;SDS011;2524;54.364;10.072;2023-08-06T10:10:16;2.00;;;1.90;;
5010;SDS011;2524;54.364;10.072;2023-08-06T10:12:43;5.10;;;2.20;;
5010;SDS011;2524;54.364;10.072;2023-08-06T10:15:15;3.03;;;2.10;;
5010;SDS011;2524;54.364;10.072;2023-08-06T10:17:46;2.03;;;1.90;;
5010;SDS011;2524;54.364;10.072;2023-08-06T10:20:15;1.90;;;1.80;;
5010;SDS011;2524;54.364;10.072;2023-08-06T10:22:43;3.27;;;2.27;;
5010;SDS011;2524;54.364;10.072;2023-08-06T10:25:10;2.40;;;2.17;;
5010;SDS011;2524;54.364;10.072;2023-08-06T10:30:26;4.97;;;2.03;;
5010;SDS011;2524;54.364;10.072;2023-08-06T10:33:03;1.87;;;1.77;;
5010;SDS011;2524;54.364;10.072;2023-08-06T10:38:20;1.80;;;1.70;;
5010;SDS011;2524;54.364;10.072;2023-08-06T10:43:25;2.10;;;1.70;;
5010;SDS011;2524;54.364;10.072;2023-08-06T10:45:58;2.80;;;1.90;;
5010;SDS011;2524;54.364;10.072;2023-08-06T10:48:33;2.53;;;2.20;;
5010;SDS011;2524;54.364;10.072;2023-08-06T10:51:01;1.73;;;1.63;;
5010;SDS011;2524;54.364;10.072;2023-08-06T10:53:29;1.93;;;1.83;;
5010;SDS011;2524;54.364;10.072;2023-08-06T10:55:55;1.50;;;1.40;;
5010;SDS011;2524;54.364;10.072;2023-08-06T10:58:20;1.60;;;1.53;;
5010;SDS011;2524;54.364;10.072;2023-08-06T11:00:46;2.03;;;1.40;;
5010;SDS011;2524;54.364;10.072;2023-08-06T11:03:11;2.37;;;2.17;;
5010;SDS011;2524;54.364;10.072;2023-08-06T11:05:37;1.50;;;1.50;;
5010;SDS011;2524;54.364;10.072;2023-08-06T11:08:04;1.93;;;1.80;;
5010;SDS011;2524;54.364;10.072;2023-08-06T11:10:32;2.20;;;1.60;;
5010;SDS011;2524;54.364;10.072;2023-08-06T11:13:02;2.00;;;1.90;;
5010;SDS011;2524;54.364;10.072;2023-08-06T11:15:29;1.87;;;1.77;;
5010;SDS011;2524;54.364;10.072;2023-08-06T11:17:55;1.43;;;1.43;;
5010;SDS011;2524;54.364;10.072;2023-08-06T11:20:21;2.00;;;1.80;;
5010;SDS011;2524;54.364;10.072;2023-08-06T11:22:47;1.60;;;1.50;;
5010;SDS011;2524;54.364;10.072;2023-08-06T11:25:13;2.23;;;2.03;;
5010;SDS011;2524;54.364;10.072;2023-08-06T11:27:38;2.20;;;1.80;;
5010;SDS011;2524;54.364;10.072;2023-08-06T11:30:04;2.17;;;2.07;;
5010;SDS011;2524;54.364;10.072;2023-08-06T11:32:30;2.23;;;2.03;;
5010;SDS011;2524;54.364;10.072;2023-08-06T11:34:56;2.77;;;1.80;;
5010;SDS011;2524;54.364;10.072;2023-08-06T11:37:22;1.67;;;1.67;;
5010;SDS011;2524;54.364;10.072;2023-08-06T11:39:49;1.80;;;1.70;;
5010;SDS011;2524;54.364;10.072;2023-08-06T11:42:15;3.30;;;2.37;;
5010;SDS011;2524;54.364;10.072;2023-08-06T11:44:41;2.83;;;1.87;;
5010;SDS011;2524;54.364;10.072;2023-08-06T11:47:12;2.27;;;2.00;;
5010;SDS011;2524;54.364;10.072;2023-08-06T11:49:42;1.80;;;1.70;;
5010;SDS011;2524;54.364;10.072;2023-08-06T11:52:16;2.30;;;2.00;;
5010;SDS011;2524;54.364;10.072;2023-08-06T11:54:48;1.80;;;1.70;;
5010;SDS011;2524;54.364;10.072;2023-08-06T11:57:29;1.40;;;1.30;;
5010;SDS011;2524;54.364;10.072;2023-08-06T11:59:58;1.73;;;1.63;;
5010;SDS011;2524;54.364;10.072;2023-08-06T12:02:31;1.70;;;1.60;;
5010;SDS011;2524;54.364;10.072;2023-08-06T12:05:15;2.83;;;1.70;;
5010;SDS011;2524;54.364;10.072;2023-08-06T12:07:41;1.50;;;1.40;;
5010;SDS011;2524;54.364;10.072;2023-08-06T12:10:09;1.67;;;1.60;;
5010;SDS011;2524;54.364;10.072;2023-08-06T12:12:34;2.00;;;1.73;;
5010;SDS011;2524;54.364;10.072;2023-08-06T12:15:01;1.37;;;1.27;;
5010;SDS011;2524;54.364;10.072;2023-08-06T12:17:27;2.27;;;1.90;;
5010;SDS011;2524;54.364;10.072;2023-08-06T12:19:53;1.90;;;1.80;;
5010;SDS011;2524;54.364;10.072;2023-08-06T12:22:18;3.40;;;1.73;;
5010;SDS011;2524;54.364;10.072;2023-08-06T12:24:45;1.80;;;1.70;;
5010;SDS011;2524;54.364;10.072;2023-08-06T12:27:12;1.70;;;1.60;;
5010;SDS011;2524;54.364;10.072;2023-08-06T12:29:41;1.67;;;1.57;;
5010;SDS011;2524;54.364;10.072;2023-08-06T12:32:08;2.53;;;1.60;;
5010;SDS011;2524;54.364;10.072;2023-08-06T12:34:38;1.70;;;1.60;;
5010;SDS011;2524;54.364;10.072;2023-08-06T12:37:07;1.30;;;1.30;;
5010;SDS011;2524;54.364;10.072;2023-08-06T12:39:33;1.27;;;1.27;;
5010;SDS011;2524;54.364;10.072;2023-08-06T12:42:00;1.90;;;1.80;;
5010;SDS011;2524;54.364;10.072;2023-08-06T12:44:26;1.33;;;1.23;;
5010;SDS011;2524;54.364;10.072;2023-08-06T12:46:52;1.37;;;1.37;;
5010;SDS011;2524;54.364;10.072;2023-08-06T12:49:18;1.67;;;1.57;;
5010;SDS011;2524;54.364;10.072;2023-08-06T12:51:46;2.27;;;1.70;;
5010;SDS011;2524;54.364;10.072;2023-08-06T12:54:12;1.53;;;1.43;;
5010;SDS011;2524;54.364;10.072;2023-08-06T12:56:38;1.53;;;1.43;;
5010;SDS011;2524;54.364;10.072;2023-08-06T12:59:03;1.67;;;1.57;;
5010;SDS011;2524;54.364;10.072;2023-08-06T13:01:29;1.20;;;1.20;;
5010;SDS011;2524;54.364;10.072;2023-08-06T13:03:54;1.47;;;1.33;;
5010;SDS011;2524;54.364;10.072;2023-08-06T13:06:20;1.40;;;1.30;;
5010;SDS011;2524;54.364;10.072;2023-08-06T13:08:45;1.60;;;1.50;;
5010;SDS011;2524;54.364;10.072;2023-08-06T13:11:11;1.50;;;1.40;;
5010;SDS011;2524;54.364;10.072;2023-08-06T13:13:37;1.70;;;1.60;;
5010;SDS011;2524;54.364;10.072;2023-08-06T13:16:02;1.70;;;1.60;;
5010;SDS011;2524;54.364;10.072;2023-08-06T13:18:28;2.07;;;1.87;;
5010;SDS011;2524;54.364;10.072;2023-08-06T13:20:54;1.67;;;1.57;;
5010;SDS011;2524;54.364;10.072;2023-08-06T13:23:20;2.30;;;1.73;;
5010;SDS011;2524;54.364;10.072;2023-08-06T13:25:46;2.00;;;1.90;;
5010;SDS011;2524;54.364;10.072;2023-08-06T13:28:11;2.63;;;2.17;;
5010;SDS011;2524;54.364;10.072;2023-08-06T13:30:38;2.13;;;1.93;;
5010;SDS011;2524;54.364;10.072;2023-08-06T13:33:10;2.50;;;2.00;;
5010;SDS011;2524;54.364;10.072;2023-08-06T13:35:36;2.13;;;1.90;;
5010;SDS011;2524;54.364;10.072;2023-08-06T13:38:02;1.73;;;1.63;;
5010;SDS011;2524;54.364;10.072;2023-08-06T13:40:31;1.63;;;1.53;;
5010;SDS011;2524;54.364;10.072;2023-08-06T13:42:58;2.47;;;1.67;;
5010;SDS011;2524;54.364;10.072;2023-08-06T13:45:23;2.80;;;2.00;;
5010;SDS011;2524;54.364;10.072;2023-08-06T13:47:49;2.07;;;1.90;;
5010;SDS011;2524;54.364;10.072;2023-08-06T13:50:15;1.23;;;1.20;;
5010;SDS011;2524;54.364;10.072;2023-08-06T13:52:40;2.20;;;1.93;;
5010;SDS011;2524;54.364;10.072;2023-08-06T13:55:06;2.43;;;1.70;;
5010;SDS011;2524;54.364;10.072;2023-08-06T13:57:32;2.87;;;1.90;;
5010;SDS011;2524;54.364;10.072;2023-08-06T13:59:59;2.23;;;2.13;;
5010;SDS011;2524;54.364;10.072;2023-08-06T14:02:25;6.10;;;1.80;;
5010;SDS011;2524;54.364;10.072;2023-08-06T14:04:51;3.83;;;1.80;;
5010;SDS011;2524;54.364;10.072;2023-08-06T14:07:18;2.20;;;1.73;;
5010;SDS011;2524;54.364;10.072;2023-08-06T14:09:43;2.10;;;2.00;;
5010;SDS011;2524;54.364;10.072;2023-08-06T14:12:09;2.13;;;1.90;;
5010;SDS011;2524;54.364;10.072;2023-08-06T14:14:35;2.13;;;1.80;;
5010;SDS011;2524;54.364;10.072;2023-08-06T14:17:01;2.80;;;2.10;;
5010;SDS011;2524;54.364;10.072;2023-08-06T14:19:26;1.53;;;1.53;;
5010;SDS011;2524;54.364;10.072;2023-08-06T14:21:52;3.07;;;2.10;;
5010;SDS011;2524;54.364;10.072;2023-08-06T14:24:18;1.77;;;1.67;;
5010;SDS011;2524;54.364;10.072;2023-08-06T14:26:44;1.70;;;1.40;;
5010;SDS011;2524;54.364;10.072;2023-08-06T14:29:09;1.70;;;1.60;;
5010;SDS011;2524;54.364;10.072;2023-08-06T14:31:35;2.00;;;1.90;;
5010;SDS011;2524;54.364;10.072;2023-08-06T14:34:07;1.80;;;1.70;;
5010;SDS011;2524;54.364;10.072;2023-08-06T14:36:32;1.53;;;1.43;;
5010;SDS011;2524;54.364;10.072;2023-08-06T14:38:58;1.57;;;1.47;;
5010;SDS011;2524;54.364;10.072;2023-08-06T14:41:23;1.30;;;1.20;;
5010;SDS011;2524;54.364;10.072;2023-08-06T14:43:49;4.80;;;1.70;;
5010;SDS011;2524;54.364;10.072;2023-08-06T14:46:15;1.50;;;1.50;;
5010;SDS011;2524;54.364;10.072;2023-08-06T14:48:41;1.80;;;1.70;;
5010;SDS011;2524;54.364;10.072;2023-08-06T14:51:09;2.30;;;1.93;;
5010;SDS011;2524;54.364;10.072;2023-08-06T14:53:38;2.20;;;2.00;;
5010;SDS011;2524;54.364;10.072;2023-08-06T14:56:08;1.80;;;1.70;;
5010;SDS011;2524;54.364;10.072;2023-08-06T14:58:33;2.73;;;2.30;;
5010;SDS011;2524;54.364;10.072;2023-08-06T15:00:59;1.90;;;1.80;;
5010;SDS011;2524;54.364;10.072;2023-08-06T15:03:24;1.77;;;1.77;;
5010;SDS011;2524;54.364;10.072;2023-08-06T15:05:50;4.60;;;2.20;;
5010;SDS011;2524;54.364;10.072;2023-08-06T15:08:17;2.17;;;2.07;;
5010;SDS011;2524;54.364;10.072;2023-08-06T15:10:42;2.03;;;1.97;;